Terminal Aerodrome Forecast
Issued by NWS

Home | Current Version | Previous Version | Text Only | Print | Product List | Glossary On
Versions: 1 2 3 4 5 6 7 8 9 10 11 12 13 14 15 16 17 18 19 20 21 22 23 24 25 26 27
000
FTUS41 KCAR 010700 AAA
TAFFVE
TAF AMD
KFVE 010700Z 0107/0206 36004KT 5SM BR OVC003
     FM011000 VRB03KT P6SM SCT010
     FM011700 05004KT P6SM FEW250
     FM020500 11004KT P6SM FEW250=

USA.gov is the U.S. government's official web portal to all federal, state and local government web resources and services.